Time;durP1;ratioP1;P1;durP2;ratioP2;P2;SDS_P1;SDS_P2;PMS_P1;PMS_P2;Temp;Humidity;BMP_temperature;BMP_pressure;BME280_temperature;BME280_humidity;BME280_pressure;Samples;Min_cycle;Max_cycle;Signal;HPM_P1;HPM_P2
2022/07/17 00:01:49;;;;;;;3.80;1.10;;;;;;;11.43;92.46;101754.31;5187737;28;20029;-72
2022/07/17 00:04:20;;;;;;;4.15;1.05;;;;;;;11.41;92.51;101756.94;5173557;28;20388;-72
2022/07/17 00:06:50;;;;;;;3.95;1.00;;;;;;;11.63;91.08;101746.94;5186765;28;20036;-72
2022/07/17 00:09:20;;;;;;;4.70;1.10;;;;;;;11.84;89.70;101747.34;5190591;28;20036;-72
2022/07/17 00:11:51;;;;;;;5.00;1.40;;;;;;;11.78;90.24;101750.06;5187341;28;20013;-72
2022/07/17 00:14:21;;;;;;;2.60;1.00;;;;;;;11.98;89.52;101750.47;5194649;28;20052;-72
2022/07/17 00:16:53;;;;;;;4.13;1.15;;;;;;;11.79;91.08;101749.16;5189033;28;20605;-72
2022/07/17 00:19:24;;;;;;;5.60;1.20;;;;;;;11.76;92.25;101751.00;5209826;28;20033;-73
2022/07/17 00:21:55;;;;;;;2.78;1.13;;;;;;;11.83;91.44;101749.97;5184323;28;20480;-72
2022/07/17 00:24:25;;;;;;;9.75;1.40;;;;;;;11.83;90.98;101755.22;5204662;28;20040;-72
2022/07/17 00:26:55;;;;;;;3.70;1.20;;;;;;;11.71;91.80;101756.34;5185062;28;20053;-72
2022/07/17 00:29:26;;;;;;;3.95;1.05;;;;;;;11.74;90.70;101758.00;5185404;28;20049;-73
2022/07/17 00:31:56;;;;;;;5.35;1.13;;;;;;;11.53;91.94;101753.19;5183756;28;20022;-72
2022/07/17 00:34:27;;;;;;;4.70;1.30;;;;;;;11.73;91.36;101754.56;5181513;28;20037;-72
2022/07/17 00:36:57;;;;;;;4.82;1.00;;;;;;;11.75;90.97;101752.75;5204105;28;20025;-72
2022/07/17 00:39:28;;;;;;;5.00;1.08;;;;;;;11.68;91.68;101755.53;5170271;28;20028;-70
2022/07/17 00:41:59;;;;;;;3.60;0.95;;;;;;;11.56;91.80;101751.44;5185370;28;20534;-72
2022/07/17 00:44:29;;;;;;;2.58;1.00;;;;;;;11.55;92.40;101747.06;5183921;28;20029;-72
2022/07/17 00:46:59;;;;;;;8.02;1.48;;;;;;;11.31;92.06;101742.28;5186201;28;20022;-72
2022/07/17 00:49:30;;;;;;;4.00;1.20;;;;;;;11.04;93.38;101750.69;5169280;28;20096;-72
2022/07/17 00:52:00;;;;;;;5.15;1.10;;;;;;;10.85;95.82;101743.19;5186567;28;20383;-72
2022/07/17 00:54:35;;;;;;;3.90;1.10;;;;;;;10.55;97.41;101748.13;5186147;28;20029;-73
2022/07/17 00:57:08;;;;;;;3.90;1.30;;;;;;;10.33;98.64;101738.91;5189635;28;20107;-72
2022/07/17 00:59:39;;;;;;;5.43;1.20;;;;;;;10.21;99.67;101744.31;5189527;28;20022;-72
2022/07/17 01:02:13;;;;;;;5.38;1.50;;;;;;;10.12;100.00;101753.16;5205003;28;20538;-72
2022/07/17 01:04:43;;;;;;;6.53;1.15;;;;;;;10.41;100.00;101744.84;5188026;28;20029;-72
2022/07/17 01:07:14;;;;;;;3.10;1.05;;;;;;;10.55;96.60;101738.50;5185110;28;20091;-72
2022/07/17 01:09:44;;;;;;;6.20;1.30;;;;;;;10.57;97.33;101747.22;5185557;28;20047;-72
2022/07/17 01:12:15;;;;;;;4.68;1.27;;;;;;;10.56;97.56;101750.72;5182194;28;20104;-72
2022/07/17 01:14:46;;;;;;;3.28;1.13;;;;;;;10.83;94.51;101744.16;5187709;28;20028;-72
2022/07/17 01:17:17;;;;;;;3.28;1.13;;;;;;;11.04;93.04;101744.59;5186035;28;20379;-72
2022/07/17 01:19:47;;;;;;;4.90;1.20;;;;;;;10.96;91.38;101745.63;5182347;28;20431;-72
2022/07/17 01:22:18;;;;;;;5.78;1.10;;;;;;;10.59;96.14;101744.56;5186337;28;20030;-72
2022/07/17 01:24:48;;;;;;;6.80;1.38;;;;;;;10.63;96.84;101746.22;5191191;28;20654;-72
2022/07/17 01:27:18;;;;;;;4.28;1.27;;;;;;;10.36;98.10;101744.91;5192657;28;20148;-72
2022/07/17 01:29:49;;;;;;;2.72;1.00;;;;;;;10.14;99.03;101748.75;5183728;28;20149;-72
2022/07/17 01:32:19;;;;;;;5.95;1.30;;;;;;;9.73;100.00;101751.09;5188589;28;20041;-73
2022/07/17 01:34:50;;;;;;;7.68;1.52;;;;;;;9.65;100.00;101750.31;5192035;28;20025;-72
2022/07/17 01:37:20;;;;;;;5.32;1.17;;;;;;;9.68;100.00;101745.03;5204749;28;20029;-73
2022/07/17 01:39:53;;;;;;;5.15;1.20;;;;;;;9.64;100.00;101748.56;5189562;28;20030;-73
2022/07/17 01:42:25;;;;;;;6.22;1.17;;;;;;;9.59;100.00;101749.50;5185316;28;20081;-73
2022/07/17 01:44:56;;;;;;;7.35;1.30;;;;;;;9.61;100.00;101746.00;5191348;28;20513;-72
2022/07/17 01:47:26;;;;;;;3.53;0.90;;;;;;;9.70;100.00;101745.03;5187509;28;20029;-73
2022/07/17 01:49:58;;;;;;;3.80;1.17;;;;;;;9.75;99.99;101745.81;5184988;28;20526;-73
2022/07/17 01:52:28;;;;;;;4.78;1.23;;;;;;;9.74;100.00;101749.31;5187249;28;20044;-73
2022/07/17 01:54:59;;;;;;;5.53;1.50;;;;;;;9.71;100.00;101754.59;5205056;28;20446;-73
2022/07/17 01:57:29;;;;;;;9.02;1.52;;;;;;;9.50;100.00;101754.88;5190921;28;20327;-73
2022/07/17 02:00:00;;;;;;;6.72;1.38;;;;;;;9.60;100.00;101757.34;5188685;28;20064;-73
2022/07/17 02:02:31;;;;;;;3.95;1.10;;;;;;;9.70;100.00;101752.84;5190439;28;20056;-73
2022/07/17 02:05:02;;;;;;;4.43;1.10;;;;;;;9.59;99.99;101754.72;5205172;28;20018;-73
2022/07/17 02:07:32;;;;;;;7.55;1.48;;;;;;;9.53;100.00;101752.22;5174846;28;20029;-71
2022/07/17 02:10:03;;;;;;;5.57;1.42;;;;;;;9.42;100.00;101756.69;5189073;28;20028;-73
2022/07/17 02:12:34;;;;;;;3.70;1.25;;;;;;;9.37;100.00;101755.88;5185598;28;20071;-72
2022/07/17 02:15:05;;;;;;;7.35;1.52;;;;;;;9.20;100.00;101758.69;5190277;28;20430;-72
2022/07/17 02:17:36;;;;;;;8.13;1.65;;;;;;;9.29;100.00;101763.81;5190745;28;20507;-72
2022/07/17 02:20:07;;;;;;;7.47;1.63;;;;;;;9.19;100.00;101763.94;5185506;28;20034;-72
2022/07/17 02:22:38;;;;;;;6.55;1.17;;;;;;;9.40;100.00;101763.66;5185212;28;20041;-72
2022/07/17 02:25:10;;;;;;;5.90;1.42;;;;;;;9.66;100.00;101759.00;5205892;28;20021;-72
2022/07/17 02:27:42;;;;;;;6.93;1.48;;;;;;;9.60;100.00;101764.28;5188230;28;20083;-72
2022/07/17 02:30:17;;;;;;;7.28;1.52;;;;;;;9.43;100.00;101758.41;5189461;28;20052;-72
2022/07/17 02:32:47;;;;;;;6.00;1.17;;;;;;;9.41;100.00;101770.63;5187551;28;20022;-72
2022/07/17 02:35:17;;;;;;;4.32;1.45;;;;;;;9.25;100.00;101769.06;5190508;28;20556;-72
2022/07/17 02:37:48;;;;;;;5.22;1.42;;;;;;;9.31;100.00;101774.22;5187117;28;20105;-72
2022/07/17 02:40:18;;;;;;;5.07;1.60;;;;;;;9.29;100.00;101776.00;5187033;28;20025;-72
2022/07/17 02:42:49;;;;;;;4.32;1.27;;;;;;;9.52;100.00;101780.03;5201173;28;20026;-72
2022/07/17 02:45:24;;;;;;;5.57;1.38;;;;;;;9.58;100.00;101784.31;5189536;28;20029;-72
2022/07/17 02:47:54;;;;;;;6.55;1.35;;;;;;;9.63;100.00;101775.56;5186537;28;20026;-72
2022/07/17 02:50:25;;;;;;;4.38;1.35;;;;;;;9.77;99.11;101778.00;5186288;28;20040;-72
2022/07/17 02:52:55;;;;;;;3.45;1.17;;;;;;;9.95;96.64;101776.00;5186255;28;20290;-73
2022/07/17 02:55:26;;;;;;;3.83;1.20;;;;;;;9.55;96.55;101789.59;5191977;28;20029;-72
2022/07/17 02:57:56;;;;;;;5.45;1.42;;;;;;;9.22;99.85;101789.97;5203243;28;20041;-72
2022/07/17 03:00:27;;;;;;;3.22;1.20;;;;;;;8.98;100.00;101787.63;5191852;28;20434;-71
2022/07/17 03:02:57;;;;;;;6.10;1.52;;;;;;;8.81;100.00;101788.66;5187370;28;20026;-72
2022/07/17 03:05:28;;;;;;;3.15;1.27;;;;;;;8.82;100.00;101787.75;5191680;28;20186;-71
2022/07/17 03:07:58;;;;;;;6.93;1.30;;;;;;;8.77;100.00;101782.63;5189490;28;20033;-72
2022/07/17 03:10:29;;;;;;;8.73;1.50;;;;;;;8.87;100.00;101792.06;5186234;28;20029;-72
2022/07/17 03:12:59;;;;;;;3.53;1.10;;;;;;;8.94;100.00;101783.31;5185359;28;20045;-71
2022/07/17 03:15:29;;;;;;;3.38;1.30;;;;;;;9.01;100.00;101777.16;5189916;28;20033;-72
2022/07/17 03:18:00;;;;;;;5.78;1.40;;;;;;;8.92;100.00;101779.00;5187145;28;20096;-72
2022/07/17 03:20:30;;;;;;;7.97;1.42;;;;;;;8.98;100.00;101778.91;5185521;28;20076;-72
2022/07/17 03:23:00;;;;;;;5.90;1.45;;;;;;;8.94;100.00;101787.66;5169435;28;20116;-72
2022/07/17 03:25:31;;;;;;;5.18;1.30;;;;;;;9.10;100.00;101778.81;5189575;28;20029;-72
2022/07/17 03:28:01;;;;;;;3.90;1.13;;;;;;;9.24;99.52;101782.97;5187071;28;20034;-72
2022/07/17 03:30:32;;;;;;;5.10;1.20;;;;;;;9.09;98.92;101780.53;5188896;28;20144;-72
2022/07/17 03:33:02;;;;;;;6.50;1.10;;;;;;;9.27;100.00;101772.50;5204425;28;20026;-72
2022/07/17 03:35:33;;;;;;;10.05;1.30;;;;;;;9.18;97.13;101788.28;5190757;28;20402;-72
2022/07/17 03:38:03;;;;;;;7.13;1.27;;;;;;;9.07;99.28;101795.34;5187438;28;20026;-72
2022/07/17 03:40:33;;;;;;;5.78;1.40;;;;;;;9.26;100.00;101799.47;5185024;28;20029;-72
2022/07/17 03:43:04;;;;;;;10.48;1.55;;;;;;;9.11;100.00;101797.06;5187482;28;20029;-72
2022/07/17 03:45:34;;;;;;;6.28;1.33;;;;;;;9.15;99.26;101801.34;5189524;28;20038;-71
2022/07/17 03:48:05;;;;;;;5.80;1.60;;;;;;;8.95;100.00;101803.31;5188091;28;20018;-72
2022/07/17 03:50:35;;;;;;;5.50;1.30;;;;;;;8.77;100.00;101807.81;5186043;28;20285;-72
2022/07/17 03:53:06;;;;;;;6.38;1.52;;;;;;;8.75;100.00;101817.38;5186470;28;20487;-72
2022/07/17 03:55:36;;;;;;;4.97;1.58;;;;;;;8.91;100.00;101814.63;5189585;28;20116;-72
2022/07/17 03:58:06;;;;;;;6.07;1.52;;;;;;;9.16;100.00;101816.13;5198642;23;20399;-73
2022/07/17 04:00:37;;;;;;;5.30;1.58;;;;;;;9.22;100.00;101816.06;5170055;28;20038;-73
2022/07/17 04:03:07;;;;;;;9.52;1.23;;;;;;;9.18;100.00;101820.44;5170047;28;20022;-74
2022/07/17 04:05:37;;;;;;;7.93;1.50;;;;;;;9.34;100.00;101816.78;5189972;28;20037;-75
2022/07/17 04:08:08;;;;;;;5.75;1.65;;;;;;;9.27;100.00;101832.50;5187312;28;20249;-74
2022/07/17 04:10:38;;;;;;;4.32;1.40;;;;;;;9.48;100.00;101829.69;5167778;28;20124;-74
2022/07/17 04:13:09;;;;;;;5.28;1.25;;;;;;;9.56;100.00;101822.63;5169649;28;20131;-74
2022/07/17 04:15:59;;;;;;;4.38;1.33;;;;;;;9.43;100.00;101821.03;5172857;28;20538;-74
2022/07/17 04:18:33;;;;;;;7.63;1.35;;;;;;;9.32;100.00;101833.34;5167871;28;20034;-75
2022/07/17 04:21:06;;;;;;;5.90;1.48;;;;;;;9.35;100.00;101828.09;5165361;28;20026;-74
2022/07/17 04:23:37;;;;;;;6.43;1.40;;;;;;;9.55;100.00;101831.34;5169588;28;20431;-74
2022/07/17 04:26:08;;;;;;;6.63;1.63;;;;;;;9.78;100.00;101826.72;5171071;28;20030;-74
2022/07/17 04:28:39;;;;;;;4.90;1.15;;;;;;;9.61;100.00;101826.03;5171908;28;20380;-75
2022/07/17 04:31:09;;;;;;;6.50;1.63;;;;;;;9.91;100.00;101820.44;5171122;28;20022;-73
2022/07/17 04:33:40;;;;;;;6.53;1.40;;;;;;;10.02;100.00;101819.44;5170357;28;20045;-75
2022/07/17 04:36:10;;;;;;;7.50;1.33;;;;;;;10.15;100.00;101825.41;5170646;28;20491;-74
2022/07/17 04:38:40;;;;;;;4.97;1.50;;;;;;;10.09;100.00;101820.25;5171096;28;20482;-75
2022/07/17 04:41:11;;;;;;;5.05;1.38;;;;;;;10.27;100.00;101812.13;5167512;28;20399;-75
2022/07/17 04:43:41;;;;;;;5.93;1.30;;;;;;;10.67;100.00;101805.44;5169131;28;20565;-74
2022/07/17 04:46:11;;;;;;;7.43;1.30;;;;;;;12.42;93.66;101797.50;5172870;28;20392;-73
2022/07/17 04:48:42;;;;;;;4.90;1.40;;;;;;;12.95;87.24;101802.34;5169644;28;20042;-75
2022/07/17 04:51:12;;;;;;;4.53;1.20;;;;;;;12.59;90.71;101799.72;5167401;28;20494;-75
2022/07/17 04:53:43;;;;;;;6.32;1.23;;;;;;;12.17;94.16;101796.38;5169087;28;20045;-75
2022/07/17 04:56:13;;;;;;;4.82;1.38;;;;;;;12.94;91.77;101805.88;5171880;28;20038;-74
2022/07/17 04:58:43;;;;;;;3.83;1.15;;;;;;;14.46;85.13;101794.44;5169966;28;20022;-75
2022/07/17 05:01:14;;;;;;;4.03;1.25;;;;;;;16.45;75.54;101795.06;5173161;28;20447;-75
2022/07/17 05:03:44;;;;;;;5.95;1.02;;;;;;;18.17;71.64;101788.25;5171070;28;20030;-75
2022/07/17 05:06:14;;;;;;;3.72;1.30;;;;;;;19.72;64.56;101786.47;5171080;28;20547;-75
2022/07/17 05:08:45;;;;;;;3.15;0.80;;;;;;;21.11;62.16;101797.06;5169697;28;20026;-76
2022/07/17 05:11:15;;;;;;;3.03;0.95;;;;;;;21.01;61.74;101803.88;5166712;28;20256;-75
2022/07/17 05:13:45;;;;;;;3.47;0.90;;;;;;;22.05;57.70;101816.97;5170336;28;20032;-76
2022/07/17 05:16:16;;;;;;;5.18;1.13;;;;;;;19.96;65.60;101823.16;5170503;28;20534;-76
2022/07/17 05:18:46;;;;;;;6.00;1.10;;;;;;;21.10;63.45;101827.28;5166411;28;20033;-75
2022/07/17 05:21:17;;;;;;;3.75;1.10;;;;;;;20.56;63.31;101827.78;5165918;28;20048;-76
2022/07/17 05:23:47;;;;;;;5.93;1.17;;;;;;;19.26;68.49;101827.81;5168386;28;20031;-76
2022/07/17 05:26:17;;;;;;;6.60;1.10;;;;;;;19.57;68.59;101830.59;5171398;28;20022;-76
2022/07/17 05:28:48;;;;;;;4.35;1.27;;;;;;;19.46;69.04;101829.47;5168506;28;20609;-76
2022/07/17 05:31:18;;;;;;;4.28;1.20;;;;;;;20.41;66.85;101820.66;5171947;28;20295;-76
2022/07/17 05:33:49;;;;;;;5.28;1.38;;;;;;;20.46;65.87;101807.97;5152874;28;20035;-76
2022/07/17 05:36:19;;;;;;;8.05;1.30;;;;;;;20.16;65.83;101815.00;5173082;28;20388;-76
2022/07/17 05:38:50;;;;;;;6.97;1.58;;;;;;;19.89;70.59;101807.66;5169218;28;20388;-76
2022/07/17 05:41:20;;;;;;;5.50;1.13;;;;;;;19.76;67.00;101815.41;5182555;28;20208;-74
2022/07/17 05:43:50;;;;;;;5.28;1.00;;;;;;;20.32;68.29;101807.06;5168024;28;20125;-75
2022/07/17 05:46:21;;;;;;;7.97;1.10;;;;;;;18.88;70.11;101806.81;5172693;28;20384;-75
2022/07/17 05:48:51;;;;;;;8.13;1.65;;;;;;;18.40;71.72;101809.22;5168288;28;20169;-75
2022/07/17 05:51:22;;;;;;;6.97;1.40;;;;;;;19.05;71.25;101807.69;5165862;28;20041;-75
2022/07/17 05:53:52;;;;;;;7.07;1.20;;;;;;;20.41;66.04;101802.06;5168936;28;20026;-75
2022/07/17 05:56:23;;;;;;;6.10;1.27;;;;;;;21.08;67.08;101805.25;5187951;28;20602;-75
2022/07/17 05:58:53;;;;;;;8.32;1.55;;;;;;;20.00;68.82;101814.13;5162549;28;20514;-76
2022/07/17 06:01:24;;;;;;;4.35;1.15;;;;;;;20.10;67.86;101818.00;5164504;28;20076;-75
2022/07/17 06:03:54;;;;;;;7.75;1.50;;;;;;;19.84;68.83;101813.22;5164850;28;20085;-75
2022/07/17 06:06:25;;;;;;;8.55;1.33;;;;;;;19.70;69.51;101810.47;5164186;28;20562;-75
2022/07/17 06:08:55;;;;;;;9.43;1.15;;;;;;;19.13;71.25;101808.13;5162127;28;20025;-75
2022/07/17 06:11:25;;;;;;;5.97;1.23;;;;;;;19.09;73.14;101811.88;5172307;28;20104;-76
2022/07/17 06:13:56;;;;;;;4.60;0.98;;;;;;;19.11;71.63;101804.72;5170374;28;20022;-75
2022/07/17 06:16:26;;;;;;;6.03;1.33;;;;;;;19.09;71.88;101800.44;5164484;28;20041;-74
2022/07/17 06:18:57;;;;;;;8.98;1.20;;;;;;;19.83;70.53;101784.97;5165106;28;20108;-75
2022/07/17 06:21:27;;;;;;;7.15;1.25;;;;;;;19.34;71.00;101787.66;5166444;28;20387;-75
2022/07/17 06:23:58;;;;;;;11.23;1.40;;;;;;;18.96;71.37;101794.88;5170393;28;20042;-72
2022/07/17 06:26:28;;;;;;;9.73;1.40;;;;;;;18.23;73.89;101800.34;5169788;28;20068;-75
2022/07/17 06:28:58;;;;;;;5.70;1.00;;;;;;;19.15;72.94;101801.00;5167617;28;20608;-75
2022/07/17 06:31:29;;;;;;;7.70;1.38;;;;;;;19.62;71.83;101806.50;5170511;28;20435;-75
2022/07/17 06:33:59;;;;;;;6.65;1.30;;;;;;;19.89;69.52;101805.88;5167687;28;20095;-75
2022/07/17 06:36:29;;;;;;;6.15;1.05;;;;;;;19.12;70.87;101816.19;5168384;28;20498;-75
2022/07/17 06:39:00;;;;;;;10.15;1.40;;;;;;;19.25;69.77;101819.97;5167658;28;20392;-75
2022/07/17 06:41:30;;;;;;;7.40;1.20;;;;;;;19.93;70.18;101818.03;5163625;28;20045;-75
2022/07/17 06:44:01;;;;;;;7.80;1.30;;;;;;;19.43;69.81;101808.41;5167525;28;20033;-75
2022/07/17 06:46:31;;;;;;;5.55;1.00;;;;;;;20.32;66.26;101813.19;5170340;28;20025;-71
2022/07/17 06:49:02;;;;;;;7.00;1.30;;;;;;;20.57;65.82;101816.19;5166961;28;20060;-75
2022/07/17 06:51:32;;;;;;;7.43;1.27;;;;;;;20.84;65.07;101826.13;5164064;28;20029;-75
2022/07/17 06:54:03;;;;;;;11.05;1.85;;;;;;;20.55;66.20;101831.38;5168509;28;20029;-75
2022/07/17 06:56:33;;;;;;;5.75;1.10;;;;;;;21.40;64.86;101830.78;5169489;28;20551;-74
2022/07/17 06:59:06;;;;;;;8.57;1.30;;;;;;;20.91;65.21;101821.31;5169483;28;20033;-75
2022/07/17 07:01:37;;;;;;;6.32;1.13;;;;;;;21.04;64.82;101814.34;5153281;28;20439;-75
2022/07/17 07:04:08;;;;;;;7.70;1.40;;;;;;;21.15;66.49;101814.56;5168932;28;20041;-75
2022/07/17 07:06:38;;;;;;;6.40;1.45;;;;;;;21.46;64.58;101817.09;5167878;28;20029;-75
2022/07/17 07:09:11;;;;;;;7.55;1.20;;;;;;;21.16;63.62;101816.25;5167841;28;20057;-75
2022/07/17 07:11:41;;;;;;;6.93;1.35;;;;;;;21.49;64.22;101795.59;5159860;28;20037;-76
2022/07/17 07:14:11;;;;;;;7.05;1.25;;;;;;;21.36;64.36;101802.63;5166899;28;20033;-75
2022/07/17 07:16:42;;;;;;;7.03;1.13;;;;;;;21.67;62.55;101798.03;5164131;28;20042;-76
2022/07/17 07:19:12;;;;;;;6.03;1.15;;;;;;;22.34;62.98;101799.94;5165459;28;20586;-76
2022/07/17 07:21:42;;;;;;;8.23;1.50;;;;;;;23.04;59.82;101797.91;5162061;28;20120;-76
2022/07/17 07:24:13;;;;;;;7.53;1.52;;;;;;;23.11;58.92;101804.50;5166361;28;20149;-76
2022/07/17 07:26:43;;;;;;;6.72;1.48;;;;;;;23.11;58.63;101799.19;5169530;28;21521;-75
2022/07/17 07:29:14;;;;;;;5.65;1.08;;;;;;;22.81;59.73;101802.09;5168387;28;20038;-75
2022/07/17 07:31:44;;;;;;;6.93;1.33;;;;;;;23.54;58.58;101793.47;5173089;28;20061;-76
2022/07/17 07:34:14;;;;;;;7.45;1.20;;;;;;;23.39;59.05;101802.56;5173192;28;20069;-76
2022/07/17 07:36:45;;;;;;;7.03;1.40;;;;;;;23.14;58.65;101799.88;5171443;28;20489;-76
2022/07/17 07:39:15;;;;;;;6.93;1.20;;;;;;;24.69;56.68;101797.53;5172469;28;20029;-76
2022/07/17 07:41:46;;;;;;;7.20;1.70;;;;;;;24.71;55.41;101805.47;5174413;28;20128;-76
2022/07/17 07:44:17;;;;;;;4.88;1.13;;;;;;;23.47;58.12;101812.69;5171453;28;20662;-76
2022/07/17 07:46:48;;;;;;;4.53;1.13;;;;;;;24.08;56.13;101810.97;5159915;28;20387;-75
2022/07/17 07:49:18;;;;;;;5.97;1.10;;;;;;;23.98;56.53;101820.63;5161232;28;20034;-75
2022/07/17 07:51:49;;;;;;;3.92;0.90;;;;;;;25.34;53.99;101806.81;5166558;28;20028;-76
2022/07/17 07:54:19;;;;;;;5.87;1.30;;;;;;;25.89;53.13;101799.72;5168360;28;20030;-76
2022/07/17 07:56:49;;;;;;;7.53;1.20;;;;;;;25.84;53.92;101804.59;5166094;28;20273;-76
2022/07/17 07:59:20;;;;;;;6.03;1.10;;;;;;;26.05;52.21;101804.72;5172860;28;20030;-75
2022/07/17 08:01:51;;;;;;;5.93;1.25;;;;;;;24.69;54.12;101810.09;5173459;28;20515;-75
2022/07/17 08:04:21;;;;;;;5.90;1.10;;;;;;;26.62;51.46;101799.97;5172309;28;20049;-75
2022/07/17 08:06:52;;;;;;;4.65;1.10;;;;;;;26.40;51.78;101803.56;5168945;28;20099;-75
2022/07/17 08:09:23;;;;;;;5.65;1.33;;;;;;;27.70;49.70;101803.09;5170762;28;20395;-76
2022/07/17 08:11:53;;;;;;;6.07;1.23;;;;;;;25.71;52.88;101802.97;5165584;28;20038;-76
2022/07/17 08:14:24;;;;;;;7.15;1.30;;;;;;;26.98;49.92;101800.47;5173516;28;20069;-76
2022/07/17 08:16:54;;;;;;;4.65;1.08;;;;;;;26.85;50.55;101803.31;5165311;28;20026;-76
2022/07/17 08:19:25;;;;;;;4.18;1.10;;;;;;;26.33;51.20;101812.25;5174538;28;20026;-76
2022/07/17 08:21:55;;;;;;;4.45;1.27;;;;;;;26.67;50.68;101805.84;5152925;28;20030;-75
2022/07/17 08:24:26;;;;;;;5.85;1.13;;;;;;;26.57;51.70;101802.19;5168095;28;20357;-76
2022/07/17 08:26:56;;;;;;;6.57;0.98;;;;;;;26.39;52.03;101799.19;5173620;28;20112;-76
2022/07/17 08:29:27;;;;;;;11.10;1.15;;;;;;;27.33;50.78;101801.91;5185802;28;20500;-76
2022/07/17 08:31:57;;;;;;;4.43;1.10;;;;;;;27.39;50.55;101805.88;5163379;28;20034;-76
2022/07/17 08:34:27;;;;;;;6.65;1.40;;;;;;;27.28;49.40;101803.25;5159166;28;20030;-76
2022/07/17 08:36:58;;;;;;;4.63;1.10;;;;;;;26.79;50.55;101798.44;5161211;28;20121;-77
2022/07/17 08:39:28;;;;;;;3.78;1.00;;;;;;;27.57;49.87;101807.81;5157411;28;20029;-76
2022/07/17 08:42:02;;;;;;;5.90;1.00;;;;;;;26.79;52.27;101813.72;5163954;28;20023;-76
2022/07/17 08:44:33;;;;;;;5.57;1.10;;;;;;;27.55;49.79;101798.19;5164221;28;20404;-77
2022/07/17 08:47:05;;;;;;;5.63;1.02;;;;;;;28.89;47.92;101798.53;5162316;28;20049;-75
2022/07/17 08:49:38;;;;;;;7.97;1.33;;;;;;;27.20;49.98;101803.06;5155046;28;20026;-76
2022/07/17 08:52:10;;;;;;;7.38;1.30;;;;;;;27.24;49.84;101815.25;5158886;28;20018;-75
2022/07/17 08:54:41;;;;;;;5.20;1.10;;;;;;;25.73;51.78;101814.41;5163000;28;20027;-75
2022/07/17 08:57:11;;;;;;;5.25;0.85;;;;;;;25.88;51.80;101818.59;5162592;28;20488;-75
2022/07/17 08:59:44;;;;;;;4.40;1.17;;;;;;;24.51;53.67;101824.75;5158300;28;20053;-75
2022/07/17 09:02:15;;;;;;;6.82;1.33;;;;;;;23.27;55.49;101831.91;5161367;28;20054;-75
2022/07/17 09:04:54;;;;;;;4.57;1.10;;;;;;;24.40;53.79;101830.88;5164062;28;20080;-75
2022/07/17 09:07:25;;;;;;;5.78;1.13;;;;;;;23.94;55.83;101828.97;5160155;28;20034;-75
2022/07/17 09:09:55;;;;;;;9.35;1.20;;;;;;;24.85;53.15;101822.19;5163196;28;20057;-75
2022/07/17 09:12:27;;;;;;;5.22;1.20;;;;;;;24.36;54.00;101815.19;5167463;28;20026;-74
2022/07/17 09:14:57;;;;;;;6.70;1.10;;;;;;;24.16;54.50;101821.09;5170586;28;20096;-75
2022/07/17 09:17:28;;;;;;;4.72;1.00;;;;;;;24.30;54.54;101826.31;5168620;28;20034;-75
2022/07/17 09:20:00;;;;;;;6.20;1.27;;;;;;;24.84;52.39;101829.34;5167259;28;20092;-75
2022/07/17 09:22:30;;;;;;;7.15;1.13;;;;;;;24.81;52.90;101823.38;5150924;28;20029;-74
2022/07/17 09:25:01;;;;;;;7.75;1.20;;;;;;;24.75;52.22;101823.81;5169176;28;20043;-75
2022/07/17 09:27:33;;;;;;;5.35;1.08;;;;;;;26.21;49.81;101822.09;5170981;28;20026;-74
2022/07/17 09:30:06;;;;;;;3.92;0.95;;;;;;;25.95;50.83;101814.44;5167611;28;20034;-75
2022/07/17 09:32:41;;;;;;;11.52;1.77;;;;;;;26.53;50.00;101817.69;5168017;28;20026;-75
2022/07/17 09:35:12;;;;;;;4.22;1.02;;;;;;;26.10;51.02;101810.53;5168193;28;20041;-75
2022/07/17 09:37:42;;;;;;;5.13;1.05;;;;;;;27.06;49.40;101814.94;5170002;28;20100;-76
2022/07/17 09:43:03;;;;;;;3.72;1.02;;;;;;;26.51;50.70;101802.72;5164814;28;20038;-75
2022/07/17 09:45:34;;;;;;;3.92;1.15;;;;;;;26.90;50.34;101795.72;5168896;28;20045;-75
2022/07/17 09:48:05;;;;;;;5.35;1.30;;;;;;;28.25;48.21;101799.94;5183962;28;20038;-76
2022/07/17 09:50:37;;;;;;;4.53;1.15;;;;;;;27.34;49.79;101805.41;5168099;28;20036;-75
2022/07/17 09:53:09;;;;;;;6.68;1.52;;;;;;;28.41;48.57;101796.75;5167436;28;20065;-76
2022/07/17 09:55:40;;;;;;;4.93;1.00;;;;;;;28.01;48.91;101790.50;5160941;28;20034;-76
2022/07/17 09:58:11;;;;;;;7.35;1.10;;;;;;;27.44;49.48;101795.59;5184239;28;20407;-75
2022/07/17 10:00:43;;;;;;;4.55;1.15;;;;;;;28.47;46.79;101797.03;5203584;23;20144;-70
2022/07/17 10:03:18;;;;;;;6.95;1.23;;;;;;;27.81;47.59;101796.81;5183021;28;20306;-73
2022/07/17 10:05:48;;;;;;;;;;;;;;;27.24;47.95;101793.78;5188157;28;20041;-73
2022/07/17 10:08:19;;;;;;;6.67;1.10;;;;;;;26.22;49.24;101812.25;5190454;28;19909;-73
2022/07/17 10:10:50;;;;;;;5.20;1.35;;;;;;;27.47;48.91;101804.22;5180769;28;20073;-72
2022/07/17 10:13:21;;;;;;;4.07;1.00;;;;;;;27.37;48.02;101803.31;5159685;28;20014;-73
2022/07/17 10:15:51;;;;;;;4.47;1.27;;;;;;;27.19;48.69;101806.72;5143932;28;20099;-73
2022/07/17 10:18:39;;;;;;;4.50;0.90;;;;;;;26.48;48.88;101797.56;5142149;28;20057;-72
2022/07/17 10:21:09;;;;;;;4.63;1.20;;;;;;;26.29;49.21;101808.06;5157629;28;20058;-73
2022/07/17 10:23:47;;;;;;;4.85;0.93;;;;;;;25.70;51.81;101806.63;5157808;28;20691;-73
2022/07/17 10:26:30;;;;;;;5.43;1.30;;;;;;;25.00;52.81;101815.69;5162302;28;20038;-72
2022/07/17 10:29:01;;;;;;;6.97;0.93;;;;;;;25.22;52.25;101807.75;5158498;28;20088;-73
2022/07/17 10:31:32;;;;;;;6.57;1.17;;;;;;;25.33;52.93;101810.47;5160112;28;20069;-72
2022/07/17 10:34:05;;;;;;;6.90;1.30;;;;;;;25.19;51.44;101802.63;5161441;28;20033;-72
2022/07/17 10:36:40;;;;;;;2.95;1.05;;;;;;;24.60;52.11;101800.91;5159887;28;20034;-72
2022/07/17 10:39:14;;;;;;;6.65;1.05;;;;;;;23.96;53.36;101806.53;5156012;28;20022;-72
2022/07/17 10:41:56;;;;;;;5.47;1.10;;;;;;;23.73;54.17;101798.41;5166026;28;20109;-72
2022/07/17 10:44:28;;;;;;;3.08;0.82;;;;;;;23.98;55.25;101793.91;5173896;28;20129;-72
2022/07/17 10:46:59;;;;;;;4.38;0.88;;;;;;;24.03;54.52;101794.44;5176744;28;20034;-72
2022/07/17 10:49:29;;;;;;;7.28;1.00;;;;;;;24.50;54.98;101797.16;5178445;28;20022;-72
2022/07/17 10:51:59;;;;;;;4.93;1.10;;;;;;;24.63;53.83;101792.66;5172609;28;20121;-72
2022/07/17 10:54:33;;;;;;;4.40;1.20;;;;;;;23.83;54.50;101799.47;5174399;28;20033;-72
2022/07/17 10:57:04;;;;;;;3.42;0.90;;;;;;;24.29;54.27;101792.53;5160649;28;20049;-72
2022/07/17 10:59:35;;;;;;;3.70;0.88;;;;;;;24.48;54.53;101796.44;5176912;28;20034;-73
2022/07/17 11:02:07;;;;;;;5.60;1.30;;;;;;;24.25;54.19;101796.41;5172760;28;20026;-72
2022/07/17 11:04:39;;;;;;;7.40;1.23;;;;;;;24.31;54.34;101791.47;5173420;28;20040;-72
2022/07/17 11:07:09;;;;;;;5.80;1.08;;;;;;;24.26;55.71;101784.75;5179878;28;20026;-73
2022/07/17 11:09:47;;;;;;;5.55;1.10;;;;;;;24.23;54.84;101788.50;5175391;28;20040;-72
2022/07/17 11:12:18;;;;;;;6.72;1.30;;;;;;;24.37;54.01;101785.66;5169362;28;20022;-72
2022/07/17 11:14:59;;;;;;;7.05;1.25;;;;;;;24.37;54.69;101779.47;5181222;28;20036;-73
2022/07/17 11:17:29;;;;;;;6.18;1.45;;;;;;;24.17;55.27;101780.94;5173846;28;20034;-72
2022/07/17 11:20:02;;;;;;;3.60;1.17;;;;;;;24.12;54.56;101775.06;5177082;28;20357;-72
2022/07/17 11:22:32;;;;;;;5.32;1.27;;;;;;;24.25;53.89;101773.19;5160453;28;20092;-72
2022/07/17 11:25:05;;;;;;;5.90;1.00;;;;;;;24.20;53.71;101769.19;5180881;28;20026;-72
2022/07/17 11:27:36;;;;;;;4.85;1.20;;;;;;;24.02;54.45;101774.03;5194315;28;20502;-72
2022/07/17 11:30:13;;;;;;;3.92;1.00;;;;;;;24.00;53.95;101775.94;5180690;28;20028;-72
2022/07/17 11:32:43;;;;;;;6.30;1.05;;;;;;;23.81;54.57;101775.53;5178538;28;20501;-72
2022/07/17 11:35:23;;;;;;;5.65;1.02;;;;;;;23.74;54.44;101768.91;5182587;28;20044;-72
2022/07/17 11:37:53;;;;;;;6.13;1.10;;;;;;;23.63;55.36;101770.63;5181629;28;20053;-72
2022/07/17 11:40:25;;;;;;;7.32;0.93;;;;;;;23.55;55.71;101773.84;5164785;28;20510;-72
2022/07/17 11:43:04;;;;;;;4.35;0.90;;;;;;;24.03;56.43;101769.53;5178502;28;20038;-72
2022/07/17 11:45:35;;;;;;;3.40;0.85;;;;;;;24.23;55.07;101764.44;5172348;28;20022;-72